createdAt,value
2019-02-10T00:01:18.953Z,99924.91
2019-02-10T00:03:47.595Z,99922.31
2019-02-10T00:06:24.331Z,99932.70
2019-02-10T00:08:46.635Z,99946.27
2019-02-10T00:11:15.238Z,99951.58
2019-02-10T00:13:43.859Z,99944.37
2019-02-10T00:16:20.057Z,99952.11
2019-02-10T00:18:48.648Z,99935.05
2019-02-10T00:21:17.265Z,99928.97
2019-02-10T00:23:45.915Z,99919.68
2019-02-10T00:26:14.551Z,99911.91
2019-02-10T00:28:43.195Z,99906.14
2019-02-10T00:31:11.813Z,99910.91
2019-02-10T00:33:40.470Z,99900.88
2019-02-10T00:36:09.106Z,99883.61
2019-02-10T00:38:37.700Z,99876.69
2019-02-10T00:41:06.293Z,99868.59
2019-02-10T00:43:34.893Z,99865.54
2019-02-10T00:46:03.503Z,99862.72
2019-02-10T00:48:32.123Z,99858.70
2019-02-10T00:51:00.792Z,99855.80
2019-02-10T00:53:29.351Z,99855.09
2019-02-10T00:55:57.922Z,99851.53
2019-02-10T00:58:26.539Z,99833.70
2019-02-10T01:00:55.155Z,99831.73
2019-02-10T01:03:24.094Z,99829.52
2019-02-10T01:05:52.718Z,99832.13
2019-02-10T01:08:21.403Z,99830.53
2019-02-10T01:10:50.026Z,99830.47
2019-02-10T01:13:18.604Z,99826.53
2019-02-10T01:15:47.182Z,99823.48
2019-02-10T01:18:15.818Z,99822.27
2019-02-10T01:20:44.425Z,99825.95
2019-02-10T01:23:12.992Z,99821.46
2019-02-10T01:25:41.587Z,99816.48
2019-02-10T01:28:10.180Z,99806.10
2019-02-10T01:30:38.822Z,99813.73
2019-02-10T01:33:07.390Z,99804.65
2019-02-10T01:35:35.988Z,99793.66
2019-02-10T01:38:04.857Z,99785.03
2019-02-10T01:40:33.479Z,99780.72
2019-02-10T01:43:02.110Z,99776.34
2019-02-10T01:45:30.788Z,99768.15
2019-02-10T01:47:59.387Z,99759.87
2019-02-10T01:50:27.997Z,99745.55
2019-02-10T01:52:56.598Z,99747.15
2019-02-10T01:55:25.253Z,99736.97
2019-02-10T01:57:53.944Z,99727.36
2019-02-10T02:00:22.598Z,99724.09
2019-02-10T02:02:51.171Z,99705.69
2019-02-10T02:05:19.753Z,99695.66
2019-02-10T02:07:48.383Z,99691.66
2019-02-10T02:10:16.999Z,99686.63
2019-02-10T02:12:45.673Z,99684.20
2019-02-10T02:15:15.080Z,99670.88
2019-02-10T02:17:43.749Z,99672.52
2019-02-10T02:20:12.571Z,99666.06
2019-02-10T02:22:41.204Z,99659.71
2019-02-10T02:25:10.720Z,99645.92
2019-02-10T02:27:39.297Z,99643.98
2019-02-10T02:30:13.536Z,99626.44
2019-02-10T02:32:42.067Z,99622.13
2019-02-10T02:35:10.732Z,99619.13
2019-02-10T02:37:39.325Z,99607.84
2019-02-10T02:40:09.405Z,99600.16
2019-02-10T02:42:38.046Z,99588.41
2019-02-10T02:45:08.509Z,99580.16
2019-02-10T02:47:37.103Z,99580.41
2019-02-10T02:50:06.939Z,99575.09
2019-02-10T02:52:35.569Z,99576.08
2019-02-10T02:55:04.364Z,99576.08
2019-02-10T02:57:33.064Z,99566.44
2019-02-10T03:00:01.707Z,99557.28
2019-02-10T03:02:30.321Z,99547.33
2019-02-10T03:04:58.973Z,99539.41
2019-02-10T03:07:27.607Z,99538.20
2019-02-10T03:09:56.207Z,99533.05
2019-02-10T03:12:24.764Z,99532.57
2019-02-10T03:14:53.407Z,99524.54
2019-02-10T03:17:22.058Z,99521.63
2019-02-10T03:19:50.642Z,99530.78
2019-02-10T03:22:19.205Z,99524.59
2019-02-10T03:24:47.942Z,99514.27
2019-02-10T03:27:16.530Z,99503.03
2019-02-10T03:29:45.130Z,99491.48
2019-02-10T03:32:13.871Z,99484.55
2019-02-10T03:34:42.408Z,99475.70
2019-02-10T03:37:10.978Z,99464.06
2019-02-10T03:39:39.603Z,99452.52
2019-02-10T03:42:08.260Z,99452.61
2019-02-10T03:44:37.013Z,99449.81
2019-02-10T03:47:05.611Z,99457.48
2019-02-10T03:49:34.233Z,99452.26
2019-02-10T03:52:02.837Z,99450.22
2019-02-10T03:54:31.422Z,99444.06
2019-02-10T03:57:00.026Z,99452.56
2019-02-10T03:59:28.633Z,99440.34
2019-02-10T04:01:57.317Z,99431.91
2019-02-10T04:04:25.934Z,99425.86
2019-02-10T04:06:54.548Z,99422.79
2019-02-10T04:09:23.171Z,99416.23
2019-02-10T04:11:51.791Z,99419.02
2019-02-10T04:14:20.386Z,99400.21
2019-02-10T04:16:48.985Z,99393.66
2019-02-10T04:19:17.557Z,99384.66
2019-02-10T04:21:46.216Z,99374.10
2019-02-10T04:24:14.787Z,99380.76
2019-02-10T04:26:43.419Z,99370.22
2019-02-10T04:29:12.021Z,99362.64
2019-02-10T04:31:40.622Z,99359.13
2019-02-10T04:34:09.257Z,99353.31
2019-02-10T04:36:37.851Z,99361.89
2019-02-10T04:39:06.604Z,99354.59
2019-02-10T04:41:35.259Z,99346.70
2019-02-10T04:44:03.860Z,99332.27
2019-02-10T04:46:32.480Z,99325.05
2019-02-10T04:49:01.105Z,99302.93
2019-02-10T04:51:29.805Z,99315.19
2019-02-10T04:53:58.366Z,99302.29
2019-02-10T04:56:26.998Z,99293.96
2019-02-10T04:58:55.586Z,99286.11
2019-02-10T05:01:24.168Z,99266.95
2019-02-10T05:03:52.768Z,99263.19
2019-02-10T05:06:21.378Z,99261.75
2019-02-10T05:08:49.978Z,99254.25
2019-02-10T05:11:18.558Z,99244.11
2019-02-10T05:13:47.145Z,99243.93
2019-02-10T05:16:15.789Z,99232.03
2019-02-10T05:18:44.367Z,99229.27
2019-02-10T05:21:13.027Z,99223.04
2019-02-10T05:23:41.720Z,99220.98
2019-02-10T05:26:10.455Z,99207.08
2019-02-10T05:28:39.083Z,99206.27
2019-02-10T05:31:07.644Z,99193.66
2019-02-10T05:33:36.261Z,99199.72
2019-02-10T05:36:05.219Z,99180.69
2019-02-10T05:38:33.879Z,99174.16
2019-02-10T05:41:02.470Z,99169.03
2019-02-10T05:43:31.232Z,99153.23
2019-02-10T05:45:59.889Z,99154.90
2019-02-10T05:48:28.508Z,99144.33
2019-02-10T05:50:57.104Z,99131.61
2019-02-10T05:53:25.740Z,99127.41
2019-02-10T05:55:54.327Z,99125.88
2019-02-10T05:58:22.887Z,99115.81
2019-02-10T06:00:51.489Z,99108.85
2019-02-10T06:03:20.130Z,99103.81
2019-02-10T06:05:48.692Z,99093.45
2019-02-10T06:08:17.372Z,99086.40
2019-02-10T06:10:45.951Z,99078.05
2019-02-10T06:13:14.613Z,99075.91
2019-02-10T06:15:43.192Z,99080.03
2019-02-10T06:18:11.828Z,99063.61
2019-02-10T06:20:40.480Z,99062.17
2019-02-10T06:23:09.076Z,99056.84
2019-02-10T06:25:37.654Z,99048.84
2019-02-10T06:28:06.296Z,99036.11
2019-02-10T06:30:34.887Z,99039.08
2019-02-10T06:33:03.488Z,99026.86
2019-02-10T06:35:32.101Z,99021.51
2019-02-10T06:38:00.789Z,99009.67
2019-02-10T06:40:29.430Z,99012.09
2019-02-10T06:42:58.054Z,99002.69
2019-02-10T06:45:26.665Z,98992.29
2019-02-10T06:47:55.302Z,98989.95
2019-02-10T06:50:23.951Z,98979.55
2019-02-10T06:52:52.573Z,98970.63
2019-02-10T06:55:21.211Z,98946.48
2019-02-10T06:57:49.845Z,98945.48
2019-02-10T07:00:36.610Z,98944.97
2019-02-10T07:03:49.048Z,98941.70
2019-02-10T07:06:17.685Z,98933.15
2019-02-10T07:08:46.312Z,98937.59
2019-02-10T07:11:15.016Z,98916.00
2019-02-10T07:13:46.042Z,98917.33
2019-02-10T07:16:37.680Z,98913.74
2019-02-10T07:19:42.470Z,98920.93
2019-02-10T07:23:00.680Z,98925.11
2019-02-10T07:25:49.628Z,98924.30
2019-02-10T07:28:46.819Z,98911.92
2019-02-10T07:31:19.673Z,98906.19
2019-02-10T07:34:11.005Z,98908.11
2019-02-10T07:37:03.114Z,98896.37
2019-02-10T07:39:54.553Z,98897.33
2019-02-10T07:42:51.540Z,98899.21
2019-02-10T07:45:38.299Z,98889.70
2019-02-10T07:48:21.679Z,98878.34
2019-02-10T07:51:12.622Z,98880.79
2019-02-10T07:53:53.409Z,98884.55
2019-02-10T07:57:18.805Z,98884.27
2019-02-10T08:00:05.292Z,98865.41
2019-02-10T08:03:21.637Z,98860.06
2019-02-10T08:06:37.930Z,98845.39
2019-02-10T08:09:53.744Z,98830.56
2019-02-10T08:12:48.290Z,98846.41
2019-02-10T08:16:01.255Z,98824.19
2019-02-10T08:18:41.246Z,98822.34
2019-02-10T08:21:32.260Z,98799.47
2019-02-10T08:24:45.654Z,98799.47
2019-02-10T08:28:07.809Z,98798.75
2019-02-10T08:31:05.779Z,98785.70
2019-02-10T08:33:41.948Z,98776.97
2019-02-10T08:36:41.919Z,98761.09
2019-02-10T08:39:50.930Z,98759.16
2019-02-10T08:42:55.907Z,98744.16
2019-02-10T08:45:43.902Z,98743.94
2019-02-10T08:48:59.554Z,98733.77
2019-02-10T08:52:06.802Z,98712.81
2019-02-10T08:54:35.402Z,98710.95
2019-02-10T08:57:04.049Z,98695.64
2019-02-10T08:59:32.733Z,98703.52
2019-02-10T09:02:01.356Z,98699.13
2019-02-10T09:04:29.966Z,98685.19
2019-02-10T09:06:59.413Z,98684.56
2019-02-10T09:09:28.090Z,98676.50
2019-02-10T09:11:56.746Z,98671.44
2019-02-10T09:14:25.388Z,98665.47
2019-02-10T09:16:53.995Z,98667.27
2019-02-10T09:19:22.604Z,98653.70
2019-02-10T09:21:51.221Z,98662.45
2019-02-10T09:24:19.824Z,98637.59
2019-02-10T09:26:48.464Z,98635.05
2019-02-10T09:29:17.048Z,98632.58
2019-02-10T09:31:45.666Z,98632.58
2019-02-10T09:34:14.227Z,98621.92
2019-02-10T09:36:42.859Z,98636.11
2019-02-10T09:39:11.450Z,98619.94
2019-02-10T09:41:40.046Z,98598.41
2019-02-10T09:44:08.640Z,98601.88
2019-02-10T09:46:37.256Z,98606.81
2019-02-10T09:49:05.859Z,98594.30
2019-02-10T09:51:34.457Z,98601.72
2019-02-10T09:54:03.047Z,98598.03
2019-02-10T09:56:31.632Z,98595.38
2019-02-10T09:59:00.228Z,98581.82
2019-02-10T10:01:28.869Z,98582.48
2019-02-10T10:03:57.473Z,98577.70
2019-02-10T10:06:26.056Z,98574.70
2019-02-10T10:08:54.750Z,98571.92
2019-02-10T10:11:23.333Z,98566.25
2019-02-10T10:13:53.246Z,98558.36
2019-02-10T10:16:21.750Z,98557.73
2019-02-10T10:18:56.505Z,98564.70
2019-02-10T10:21:25.097Z,98551.70
2019-02-10T10:23:53.683Z,98537.73
2019-02-10T10:26:22.283Z,98544.13
2019-02-10T10:28:50.997Z,98538.40
2019-02-10T10:31:19.636Z,98531.48
2019-02-10T10:33:48.267Z,98525.16
2019-02-10T10:36:16.898Z,98535.03
2019-02-10T10:38:45.599Z,98527.98
2019-02-10T10:41:14.191Z,98524.70
2019-02-10T10:43:42.812Z,98520.39
2019-02-10T10:46:11.539Z,98500.23
2019-02-10T10:48:40.209Z,98496.48
2019-02-10T10:51:08.809Z,98497.55
2019-02-10T10:53:37.429Z,98477.52
2019-02-10T10:56:06.028Z,98476.19
2019-02-10T10:58:34.619Z,98484.00
2019-02-10T11:01:03.222Z,98469.77
2019-02-10T11:03:31.951Z,98468.46
2019-02-10T11:06:00.556Z,98465.45
2019-02-10T11:08:29.192Z,98458.41
2019-02-10T11:10:57.879Z,98465.84
2019-02-10T11:13:26.681Z,98446.80
2019-02-10T11:15:57.176Z,98440.98
2019-02-10T11:18:25.721Z,98434.83
2019-02-10T11:20:54.321Z,98432.08
2019-02-10T11:23:22.930Z,98424.31
2019-02-10T11:25:51.527Z,98420.09
2019-02-10T11:28:20.168Z,98422.05
2019-02-10T11:30:48.799Z,98415.91
2019-02-10T11:33:17.409Z,98416.49
2019-02-10T11:35:45.999Z,98424.22
2019-02-10T11:38:14.583Z,98406.43
2019-02-10T11:40:43.205Z,98403.75
2019-02-10T11:43:11.797Z,98397.81
2019-02-10T11:45:40.374Z,98389.42
2019-02-10T11:48:08.992Z,98392.05
2019-02-10T11:50:37.566Z,98390.71
2019-02-10T11:53:06.272Z,98367.91
2019-02-10T11:55:34.933Z,98365.50
2019-02-10T11:58:03.671Z,98365.84
2019-02-10T12:00:32.268Z,98365.23
2019-02-10T12:03:00.910Z,98362.83
2019-02-10T12:05:29.988Z,98351.11
2019-02-10T12:07:58.683Z,98348.41
2019-02-10T12:10:27.294Z,98346.48
2019-02-10T12:12:55.877Z,98352.66
2019-02-10T12:15:25.198Z,98343.47
2019-02-10T12:17:53.869Z,98339.35
2019-02-10T12:20:22.550Z,98333.20
2019-02-10T12:22:51.186Z,98339.91
2019-02-10T12:25:19.824Z,98321.73
2019-02-10T12:27:48.437Z,98331.05
2019-02-10T12:30:17.237Z,98327.84
2019-02-10T12:32:46.071Z,98317.98
2019-02-10T12:35:14.682Z,98324.66
2019-02-10T12:37:45.029Z,98307.55
2019-02-10T12:40:13.832Z,98307.27
2019-02-10T12:42:42.557Z,98316.00
2019-02-10T12:45:11.267Z,98306.02
2019-02-10T12:47:39.938Z,98320.52
2019-02-10T12:50:09.697Z,98308.98
2019-02-10T12:52:38.312Z,98327.20
2019-02-10T12:55:06.952Z,98307.02
2019-02-10T12:57:35.569Z,98321.95
2019-02-10T13:00:04.889Z,98309.36
2019-02-10T13:02:33.545Z,98319.27
2019-02-10T13:05:02.164Z,98319.42
2019-02-10T13:07:30.781Z,98326.58
2019-02-10T13:09:59.418Z,98330.00
2019-02-10T13:12:27.978Z,98327.70
2019-02-10T13:14:56.612Z,98331.77
2019-02-10T13:17:25.207Z,98333.77
2019-02-10T13:19:53.859Z,98329.11
2019-02-10T13:22:22.489Z,98322.86
2019-02-10T13:24:51.180Z,98316.89
2019-02-10T13:27:19.814Z,98318.44
2019-02-10T13:29:48.401Z,98323.73
2019-02-10T13:32:17.042Z,98319.34
2019-02-10T13:34:45.682Z,98323.00
2019-02-10T13:37:14.311Z,98299.97
2019-02-10T13:39:42.940Z,98312.77
2019-02-10T13:42:12.022Z,98311.59
2019-02-10T13:44:40.605Z,98307.45
2019-02-10T13:47:09.202Z,98306.89
2019-02-10T13:49:37.848Z,98306.89
2019-02-10T13:52:06.456Z,98300.36
2019-02-10T13:54:35.119Z,98318.52
2019-02-10T13:57:03.728Z,98308.75
2019-02-10T13:59:32.367Z,98320.75
2019-02-10T14:02:01.009Z,98325.75
2019-02-10T14:04:29.595Z,98332.67
2019-02-10T14:06:58.264Z,98331.20
2019-02-10T14:09:26.881Z,98343.91
2019-02-10T14:11:55.464Z,98343.91
2019-02-10T14:14:24.034Z,98344.45
2019-02-10T14:16:52.617Z,98333.37
2019-02-10T14:19:21.215Z,98326.41
2019-02-10T14:21:49.831Z,98338.95
2019-02-10T14:24:18.456Z,98333.78
2019-02-10T14:26:47.051Z,98340.17
2019-02-10T14:29:15.674Z,98354.29
2019-02-10T14:31:44.748Z,98359.52
2019-02-10T14:34:13.392Z,98376.82
2019-02-10T14:36:42.031Z,98356.72
2019-02-10T14:39:10.660Z,98364.41
2019-02-10T14:41:39.499Z,98362.25
2019-02-10T14:44:08.111Z,98347.50
2019-02-10T14:46:36.746Z,98355.22
2019-02-10T14:49:05.932Z,98368.69
2019-02-10T14:51:34.538Z,98359.88
2019-02-10T14:54:03.141Z,98358.53
2019-02-10T14:56:31.916Z,98349.77
2019-02-10T14:59:00.541Z,98350.24
2019-02-10T15:01:30.352Z,98352.43
2019-02-10T15:03:59.021Z,98349.59
2019-02-10T15:06:27.607Z,98350.93
2019-02-10T15:08:56.229Z,98348.38
2019-02-10T15:11:24.878Z,98352.75
2019-02-10T15:13:53.600Z,98363.02
2019-02-10T15:16:22.218Z,98363.87
2019-02-10T15:18:50.850Z,98368.93
2019-02-10T15:21:19.747Z,98352.75
2019-02-10T15:23:48.644Z,98352.14
2019-02-10T15:26:17.293Z,98359.38
2019-02-10T15:28:45.897Z,98362.58
2019-02-10T15:31:14.577Z,98382.20
2019-02-10T15:33:43.316Z,98379.59
2019-02-10T15:36:11.960Z,98379.16
2019-02-10T15:38:40.540Z,98381.16
2019-02-10T15:41:09.347Z,98386.09
2019-02-10T15:43:37.940Z,98375.20
2019-02-10T15:46:06.542Z,98382.81
2019-02-10T15:48:35.172Z,98375.44
2019-02-10T15:51:03.856Z,98393.81
2019-02-10T15:53:32.549Z,98377.55
2019-02-10T15:56:01.592Z,98354.94
2019-02-10T15:58:30.276Z,98362.98
2019-02-10T16:00:59.400Z,98352.67
2019-02-10T16:03:28.211Z,98381.58
2019-02-10T16:05:56.943Z,98384.41
2019-02-10T16:08:25.904Z,98396.09
2019-02-10T16:10:58.250Z,98395.16
2019-02-10T16:13:27.912Z,98406.88
2019-02-10T16:15:56.526Z,98419.91
2019-02-10T16:18:25.384Z,98427.34
2019-02-10T16:20:53.920Z,98424.67
2019-02-10T16:23:22.488Z,98394.53
2019-02-10T16:25:51.287Z,98425.30
2019-02-10T16:28:19.866Z,98415.09
2019-02-10T16:30:48.563Z,98420.73
2019-02-10T16:33:17.168Z,98426.08
2019-02-10T16:35:45.944Z,98409.78
2019-02-10T16:38:14.567Z,98417.16
2019-02-10T16:40:45.494Z,98415.97
2019-02-10T16:43:14.125Z,98430.59
2019-02-10T16:45:42.800Z,98424.66
2019-02-10T16:48:11.553Z,98435.32
2019-02-10T16:50:40.467Z,98450.17
2019-02-10T16:53:09.100Z,98440.44
2019-02-10T16:55:37.737Z,98458.17
2019-02-10T16:58:06.677Z,98449.31
2019-02-10T17:00:35.324Z,98464.30
2019-02-10T17:03:04.031Z,98458.06
2019-02-10T17:05:33.068Z,98471.10
2019-02-10T17:08:01.779Z,98486.34
2019-02-10T17:10:30.527Z,98488.44
2019-02-10T17:12:59.215Z,98495.27
2019-02-10T17:15:27.991Z,98494.00
2019-02-10T17:17:56.881Z,98494.87
2019-02-10T17:20:25.538Z,98494.43
2019-02-10T17:22:57.610Z,98511.27
2019-02-10T17:25:26.597Z,98513.78
2019-02-10T17:27:55.188Z,98536.05
2019-02-10T17:30:23.933Z,98523.09
2019-02-10T17:32:52.555Z,98559.83
2019-02-10T17:35:21.633Z,98573.87
2019-02-10T17:37:50.553Z,98571.84
2019-02-10T17:40:26.348Z,98558.46
2019-02-10T17:42:54.965Z,98580.73
2019-02-10T17:45:23.649Z,98573.70
2019-02-10T17:47:52.510Z,98583.30
2019-02-10T17:50:21.244Z,98580.02
2019-02-10T17:52:49.881Z,98598.27
2019-02-10T17:55:18.467Z,98598.84
2019-02-10T17:57:47.963Z,98610.84
2019-02-10T18:00:17.212Z,98615.36
2019-02-10T18:02:45.829Z,98619.04
2019-02-10T18:05:14.430Z,98621.14
2019-02-10T18:07:43.090Z,98614.30
2019-02-10T18:10:12.135Z,98632.20
2019-02-10T18:12:40.858Z,98638.74
2019-02-10T18:15:26.164Z,98631.16
2019-02-10T18:18:16.781Z,98640.23
2019-02-10T18:20:58.816Z,98645.33
2019-02-10T18:23:43.124Z,98640.19
2019-02-10T18:26:43.273Z,98646.78
2019-02-10T18:29:22.712Z,98654.60
2019-02-10T18:32:08.623Z,98644.86
2019-02-10T18:34:48.971Z,98652.87
2019-02-10T18:37:25.973Z,98647.08
2019-02-10T18:40:09.079Z,98669.01
2019-02-10T18:43:00.092Z,98655.83
2019-02-10T18:45:46.680Z,98679.12
2019-02-10T18:48:31.711Z,98681.02
2019-02-10T18:51:06.477Z,98677.59
2019-02-10T18:53:58.531Z,98699.64
2019-02-10T18:56:46.154Z,98699.64
2019-02-10T18:59:40.230Z,98697.39
2019-02-10T19:02:35.779Z,98655.41
2019-02-10T19:05:15.157Z,98729.48
2019-02-10T19:08:11.957Z,98721.30
2019-02-10T19:11:17.689Z,98727.77
2019-02-10T19:14:05.288Z,98724.66
2019-02-10T19:17:05.028Z,98737.13
2019-02-10T19:19:43.877Z,98739.90
2019-02-10T19:22:30.391Z,98739.90
2019-02-10T19:25:20.521Z,98729.77
2019-02-10T19:28:26.214Z,98746.98
2019-02-10T19:31:16.646Z,98741.58
2019-02-10T19:34:00.335Z,98738.73
2019-02-10T19:36:46.897Z,98746.91
2019-02-10T19:39:52.706Z,98760.00
2019-02-10T19:42:31.616Z,98760.62
2019-02-10T19:45:25.295Z,98758.28
2019-02-10T19:48:10.156Z,98758.63
2019-02-10T19:51:03.785Z,98760.98
2019-02-10T19:53:52.318Z,98771.87
2019-02-10T19:56:55.361Z,98768.28
2019-02-10T19:59:51.827Z,98770.65
2019-02-10T20:02:42.755Z,98767.39
2019-02-10T20:05:23.978Z,98763.70
2019-02-10T20:08:14.705Z,98760.03
2019-02-10T20:11:05.678Z,98770.20
2019-02-10T20:13:43.933Z,98776.05
2019-02-10T20:16:23.045Z,98785.53
2019-02-10T20:19:10.741Z,98802.35
2019-02-10T20:21:58.374Z,98816.06
2019-02-10T20:24:53.645Z,98829.62
2019-02-10T20:27:43.842Z,98837.59
2019-02-10T20:30:33.273Z,98851.13
2019-02-10T20:33:27.283Z,98849.28
2019-02-10T20:36:24.239Z,98860.23
2019-02-10T20:39:14.775Z,98870.27
2019-02-10T20:41:47.981Z,98877.66
2019-02-10T20:44:41.372Z,98889.73
2019-02-10T20:47:21.582Z,98886.84
2019-02-10T20:50:12.102Z,98885.52
2019-02-10T20:52:59.351Z,98884.60
2019-02-10T20:55:56.014Z,98886.22
2019-02-10T20:58:44.763Z,98901.23
2019-02-10T21:01:22.451Z,98912.08
2019-02-10T21:04:07.633Z,98904.29
2019-02-10T21:06:54.400Z,98906.95
2019-02-10T21:09:42.053Z,98908.78
2019-02-10T21:12:25.269Z,98922.59
2019-02-10T21:15:12.934Z,98941.94
2019-02-10T21:17:54.886Z,98931.82
2019-02-10T21:20:42.623Z,98946.27
2019-02-10T21:23:24.221Z,98967.88
2019-02-10T21:26:06.767Z,98968.39
2019-02-10T21:28:57.158Z,98965.22
2019-02-10T21:31:56.760Z,98969.09
2019-02-10T21:34:37.914Z,98959.59
2019-02-10T21:37:23.632Z,98980.27
2019-02-10T21:40:11.203Z,98979.23
2019-02-10T21:42:58.848Z,98981.59
2019-02-10T21:45:46.470Z,98984.91
2019-02-10T21:48:37.123Z,99006.50
2019-02-10T21:51:05.753Z,99007.53
2019-02-10T21:53:34.387Z,99007.72
2019-02-10T21:56:02.943Z,99014.01
2019-02-10T21:58:31.535Z,99014.89
2019-02-10T22:01:00.281Z,99001.81
2019-02-10T22:03:28.889Z,99037.98
2019-02-10T22:05:57.612Z,99050.16
2019-02-10T22:08:26.222Z,99021.98
2019-02-10T22:10:54.797Z,99046.65
2019-02-10T22:13:23.400Z,99045.02
2019-02-10T22:15:52.026Z,99053.31
2019-02-10T22:18:20.648Z,99047.38
2019-02-10T22:20:49.261Z,99043.91
2019-02-10T22:23:17.947Z,99055.80
2019-02-10T22:25:46.604Z,99063.87
2019-02-10T22:28:15.214Z,99060.39
2019-02-10T22:30:43.863Z,99090.92
2019-02-10T22:33:12.512Z,99073.80
2019-02-10T22:35:41.106Z,99084.14
2019-02-10T22:38:09.722Z,99110.47
2019-02-10T22:40:38.307Z,99077.19
2019-02-10T22:43:06.961Z,99116.09
2019-02-10T22:45:35.583Z,99111.39
2019-02-10T22:48:04.266Z,99113.03
2019-02-10T22:50:32.893Z,99128.47
2019-02-10T22:53:01.739Z,99121.41
2019-02-10T22:55:30.345Z,99119.98
2019-02-10T22:57:58.989Z,99141.37
2019-02-10T23:00:50.479Z,99133.69
2019-02-10T23:03:19.105Z,99168.50
2019-02-10T23:05:47.818Z,99165.25
2019-02-10T23:08:16.535Z,99122.05
2019-02-10T23:10:45.105Z,99177.52
2019-02-10T23:13:13.763Z,99166.66
2019-02-10T23:15:42.338Z,99162.97
2019-02-10T23:18:10.898Z,99178.95
2019-02-10T23:20:39.526Z,99180.28
2019-02-10T23:23:08.206Z,99173.22
2019-02-10T23:25:36.850Z,99196.97
2019-02-10T23:28:05.439Z,99199.61
2019-02-10T23:30:34.053Z,99169.81
2019-02-10T23:33:02.726Z,99195.84
2019-02-10T23:35:31.321Z,99186.51
2019-02-10T23:37:59.903Z,99212.09
2019-02-10T23:40:28.533Z,99222.95
2019-02-10T23:43:02.223Z,99222.63
2019-02-10T23:45:27.500Z,99247.94
2019-02-10T23:47:56.192Z,99242.81
2019-02-10T23:50:24.806Z,99263.88
2019-02-10T23:52:53.428Z,99256.27
2019-02-10T23:55:22.015Z,99253.46
2019-02-10T23:57:50.598Z,99222.52
